• Join FlightAware (Why Join?)
  • Login
  • US Flag 
04:26PM EST


 

Airport Tracker/Info


-or-


 

Live Flight TrackerFlight Track Log ✈ N125GH ✈ 27-Jun-2013 ✈ KHOT - KROG

Flight Track Log - Related Links

Times and Time Zones

All times are in EDT time to prevent confusion due to time zone crossing. See the N125GH flight status page for this flight to view local times or setup timezone preferences in your user account.

Time Position Orientation Groundspeed Altitude Reporting Facility
EDT Latitude Longitude Course Direction KTS MPH feet Rate Location/Type
04:03PM 34.5075 -93.2025 317° Northwest 410 472 5,900  Level Memphis Center
04:04PM 34.5625 -93.2650 317° Northwest 328 377 8,300 2,460 Climbing Memphis Center
04:05PM 34.6283 -93.3025 335° Northwest 275 316 10,900 2,100 Climbing Memphis Center
04:06PM 34.7153 -93.3408 340° North 292 336 12,500 1,920 Climbing Memphis Center
04:07PM 34.8122 -93.3847 340° North 330 380 14,800 2,040 Climbing Memphis Center
04:08PM 34.8883 -93.4206 339° North 357 411 16,600 2,040 Climbing Memphis Center
04:09PM 34.9958 -93.4700 339° North 362 417 18,900 1,680 Climbing Memphis Center
04:10PM 35.0969 -93.5144 340° North 374 430 20,000 540 Climbing Memphis Center
04:11PM 35.1997 -93.5639 339° North 387 445 20,000 -180 Level Memphis Center
04:12PM 35.3008 -93.6083 340° North 387 445 19,700 -780 Descending Memphis Center
04:13PM 35.3997 -93.6556 339° North 387 445 18,500 -1,200 Descending Memphis Center
04:14PM 35.4986 -93.7003 340° North 387 445 17,300 -1,200 Descending Memphis Center
04:15PM 35.5956 -93.7450 339° North 376 433 16,100 -1,440 Descending Memphis Center
04:16PM 35.6572 -93.8472 307° West 361 415 14,500 -1,800 Descending Memphis Center
04:17PM 35.7131 -93.9442 305° West 353 406 12,600 -1,860 Descending Memphis Center
04:18PM 35.7975 -93.9786 342° North 324 373 10,800 -1,800 Descending Memphis Center
04:19PM 35.8758 -94.0050 345° North 306 352 9,000 -1,440 Descending Memphis Center
04:20PM 35.9461 -94.0286 345° North 278 320 8,000 -540 Descending Memphis Center
04:21PM 36.0225 -94.0553 344° North 271 312 8,000 -540 Level Memphis Center
04:22PM 36.0906 -94.0789 344° North 271 312 7,000 -1,260 Descending Memphis Center
04:23PM 36.1544 -94.1022 344° North 251 289 5,500 -1,500 Descending Memphis Center
04:24PM 36.2186 -94.1206 347° North 239 275 4,100 -1,200 Descending Memphis Center
04:25PM 36.2764 -94.1414 344° North 232 267 3,200 -900 Descending Memphis Center
04:26PM 36.3225 -94.1331 North 193 222 2,400 -600 Descending Memphis Center
04:27PM 36.3750 -94.1225 North 172 198 2,000 -420 Descending Memphis Center
04:29PM 36.3667 -94.1000 90° East  Level FlightAware Approximate